createdAt,value
2022-12-06T00:00:33.360Z,22.4
2022-12-06T00:01:35.834Z,22.4
2022-12-06T00:02:38.101Z,22.4
2022-12-06T00:03:40.683Z,22.2
2022-12-06T00:04:43.722Z,22.4
2022-12-06T00:05:46.626Z,22.4
2022-12-06T00:06:49.138Z,22.3
2022-12-06T00:07:51.404Z,22.4
2022-12-06T00:08:54.142Z,22.5
2022-12-06T00:09:56.796Z,22.5
2022-12-06T00:11:01.249Z,22.5
2022-12-06T00:12:03.746Z,22.5
2022-12-06T00:13:06.226Z,22.5
2022-12-06T00:14:08.169Z,22.5
2022-12-06T00:15:10.653Z,22.6
2022-12-06T00:16:13.246Z,22.7
2022-12-06T00:17:16.126Z,22.5
2022-12-06T00:18:18.330Z,22.6
2022-12-06T00:19:20.842Z,22.6
2022-12-06T00:20:23.033Z,22.4
2022-12-06T00:21:25.953Z,22.6
2022-12-06T00:22:28.436Z,22.6
2022-12-06T00:23:31.779Z,22.6
2022-12-06T00:24:34.052Z,22.7
2022-12-06T00:25:36.254Z,22.5
2022-12-06T00:26:38.600Z,22.7
2022-12-06T00:27:41.071Z,22.6
2022-12-06T00:28:43.282Z,22.5
2022-12-06T00:29:45.755Z,22.6
2022-12-06T00:30:47.973Z,22.7
2022-12-06T00:31:50.667Z,22.7
2022-12-06T00:32:53.745Z,22.7
2022-12-06T00:33:56.219Z,22.7
2022-12-06T00:34:58.701Z,22.6
2022-12-06T00:36:00.897Z,22.7
2022-12-06T00:37:02.855Z,22.6
2022-12-06T00:38:05.332Z,22.7
2022-12-06T00:39:07.559Z,22.7
2022-12-06T00:40:10.041Z,22.6
2022-12-06T00:41:12.244Z,22.6
2022-12-06T00:42:14.720Z,22.9
2022-12-06T00:43:17.210Z,22.9
2022-12-06T00:44:19.407Z,22.7
2022-12-06T00:45:21.318Z,22.9
2022-12-06T00:46:23.852Z,22.8
2022-12-06T00:47:27.007Z,22.8
2022-12-06T00:48:29.194Z,22.7
2022-12-06T00:49:31.403Z,22.6
2022-12-06T00:50:33.897Z,22.5
2022-12-06T00:51:36.091Z,22.6
2022-12-06T00:52:38.326Z,22.8
2022-12-06T00:53:40.499Z,22.7
2022-12-06T00:54:42.721Z,22.8
2022-12-06T00:55:44.916Z,22.6
2022-12-06T00:56:47.394Z,22.5
2022-12-06T00:57:49.878Z,22.6
2022-12-06T00:58:52.366Z,22.8
2022-12-06T00:59:54.832Z,22.6
2022-12-06T01:00:57.625Z,22.5
2022-12-06T01:01:59.819Z,22.6
2022-12-06T01:03:02.425Z,22.4
2022-12-06T01:04:05.307Z,22.5
2022-12-06T01:05:07.791Z,22.8
2022-12-06T01:06:10.275Z,22.7
2022-12-06T01:07:12.477Z,23.1
2022-12-06T01:08:15.031Z,22.8
2022-12-06T01:09:18.081Z,22.3
2022-12-06T01:10:20.576Z,23
2022-12-06T01:11:22.788Z,22.7
2022-12-06T01:12:24.993Z,22.8
2022-12-06T01:13:27.210Z,22.7
2022-12-06T01:14:29.710Z,22.9
2022-12-06T01:15:32.187Z,22.7
2022-12-06T01:16:34.703Z,23.1
2022-12-06T01:17:37.699Z,22.6
2022-12-06T01:18:40.278Z,22.7
2022-12-06T01:19:42.801Z,23.4
2022-12-06T01:20:45.278Z,22.7
2022-12-06T01:21:47.484Z,22.6
2022-12-06T01:22:49.951Z,22.9
2022-12-06T01:23:52.163Z,22.8
2022-12-06T01:24:54.360Z,22.8
2022-12-06T01:25:56.563Z,22.9
2022-12-06T01:26:59.045Z,22.9
2022-12-06T01:28:01.533Z,22.9
2022-12-06T01:29:03.719Z,22.9
2022-12-06T01:30:06.207Z,23
2022-12-06T01:31:08.449Z,23.1
2022-12-06T01:32:11.005Z,23.1
2022-12-06T01:33:13.495Z,22.9
2022-12-06T01:34:16.081Z,22.9
2022-12-06T01:35:18.279Z,22.9
2022-12-06T01:36:20.491Z,23
2022-12-06T01:37:22.422Z,22.9
2022-12-06T01:38:23.774Z,22.8
2022-12-06T01:39:26.001Z,22.9
2022-12-06T01:40:28.477Z,22.9
2022-12-06T01:41:30.695Z,22.9
2022-12-06T01:42:32.885Z,22.8
2022-12-06T01:43:35.090Z,22.9
2022-12-06T01:44:37.562Z,22.8
2022-12-06T01:45:39.802Z,22.8
2022-12-06T01:46:42.620Z,22.9
2022-12-06T01:47:44.914Z,22.8
2022-12-06T01:48:47.116Z,22.8
2022-12-06T01:49:49.695Z,22.9
2022-12-06T01:50:51.904Z,22.8
2022-12-06T01:51:54.389Z,23
2022-12-06T01:52:56.584Z,22.9
2022-12-06T01:53:59.069Z,22.8
2022-12-06T01:55:01.661Z,23
2022-12-06T01:56:04.135Z,22.9
2022-12-06T01:57:06.607Z,23
2022-12-06T01:58:08.814Z,23
2022-12-06T01:59:11.299Z,23
2022-12-06T02:00:13.782Z,23
2022-12-06T02:01:16.026Z,22.9
2022-12-06T02:02:18.800Z,22.8
2022-12-06T02:03:21.592Z,22.8
2022-12-06T02:04:24.068Z,22.9
2022-12-06T02:05:26.652Z,22.8
2022-12-06T02:06:28.577Z,22.9
2022-12-06T02:07:30.497Z,23
2022-12-06T02:08:33.216Z,22.7
2022-12-06T02:09:35.168Z,23
2022-12-06T02:10:37.116Z,22.8
2022-12-06T02:11:39.646Z,22.8
2022-12-06T02:12:41.842Z,22.7
2022-12-06T02:13:44.327Z,22.9
2022-12-06T02:14:46.807Z,22.9
2022-12-06T02:15:49.011Z,22.9
2022-12-06T02:16:51.565Z,22.9
2022-12-06T02:17:54.566Z,23
2022-12-06T02:18:57.082Z,23
2022-12-06T02:19:59.681Z,23
2022-12-06T02:21:03.916Z,22.8
2022-12-06T02:22:06.387Z,23
2022-12-06T02:23:08.601Z,22.9
2022-12-06T02:24:10.812Z,23.1
2022-12-06T02:25:13.026Z,22.9
2022-12-06T02:26:15.525Z,23
2022-12-06T02:27:18.010Z,23.1
2022-12-06T02:28:19.927Z,22.8
2022-12-06T02:29:22.404Z,22.8
2022-12-06T02:30:24.607Z,22.9
2022-12-06T02:31:26.881Z,23
2022-12-06T02:32:29.996Z,22.8
2022-12-06T02:33:32.473Z,22.8
2022-12-06T02:34:34.391Z,23
2022-12-06T02:35:36.567Z,22.9
2022-12-06T02:36:39.120Z,22.9
2022-12-06T02:37:41.317Z,22.9
2022-12-06T02:38:43.795Z,22.8
2022-12-06T02:39:46.270Z,22.8
2022-12-06T02:40:48.464Z,22.9
2022-12-06T02:41:50.983Z,23.1
2022-12-06T02:42:52.641Z,23
2022-12-06T02:43:55.123Z,22.9
2022-12-06T02:44:57.326Z,23
2022-12-06T02:45:59.887Z,22.9
2022-12-06T02:47:02.506Z,23.1
2022-12-06T02:48:04.994Z,23
2022-12-06T02:49:07.476Z,23.1
2022-12-06T02:50:09.674Z,22.9
2022-12-06T02:51:12.164Z,23.1
2022-12-06T02:52:14.724Z,23
2022-12-06T02:53:17.214Z,23.1
2022-12-06T02:54:19.681Z,23
2022-12-06T02:55:22.157Z,23
2022-12-06T02:56:24.175Z,23
2022-12-06T02:57:26.684Z,22.9
2022-12-06T02:58:29.158Z,22.9
2022-12-06T02:59:31.073Z,22.9
2022-12-06T03:00:33.266Z,22.9
2022-12-06T03:01:35.530Z,22.7
2022-12-06T03:02:38.398Z,22.9
2022-12-06T03:03:41.218Z,22.9
2022-12-06T03:04:43.402Z,22.9
2022-12-06T03:05:45.878Z,22.9
2022-12-06T03:06:48.078Z,22.9
2022-12-06T03:07:50.729Z,23
2022-12-06T03:08:53.145Z,23
2022-12-06T03:09:55.629Z,23
2022-12-06T03:10:57.788Z,23
2022-12-06T03:12:00.288Z,23
2022-12-06T03:13:02.504Z,23.1
2022-12-06T03:14:05.394Z,22.9
2022-12-06T03:15:09.502Z,23
2022-12-06T03:16:11.751Z,23
2022-12-06T03:17:14.771Z,23.1
2022-12-06T03:18:17.252Z,22.8
2022-12-06T03:19:19.726Z,23
2022-12-06T03:20:21.925Z,23
2022-12-06T03:21:24.120Z,22.9
2022-12-06T03:22:26.307Z,23
2022-12-06T03:23:28.879Z,23
2022-12-06T03:24:31.346Z,23
2022-12-06T03:25:33.548Z,23
2022-12-06T03:26:35.874Z,23.1
2022-12-06T03:27:38.355Z,23
2022-12-06T03:28:40.844Z,23.2
2022-12-06T03:29:43.328Z,23
2022-12-06T03:30:45.555Z,23
2022-12-06T03:31:48.437Z,23
2022-12-06T03:32:50.617Z,23
2022-12-06T03:33:53.105Z,22.9
2022-12-06T03:34:55.038Z,23.1
2022-12-06T03:35:57.529Z,23
2022-12-06T03:36:59.713Z,23
2022-12-06T03:38:02.185Z,23.1
2022-12-06T03:39:04.742Z,23.1
2022-12-06T03:40:07.230Z,23
2022-12-06T03:41:09.442Z,22.9
2022-12-06T03:42:11.930Z,23
2022-12-06T03:43:13.869Z,22.6
2022-12-06T03:44:16.102Z,22.9
2022-12-06T03:45:18.675Z,22.9
2022-12-06T03:46:21.451Z,23
2022-12-06T03:47:24.967Z,22.9
2022-12-06T03:48:27.170Z,23
2022-12-06T03:49:29.660Z,22.9
2022-12-06T03:50:31.846Z,23
2022-12-06T03:51:34.048Z,22.9
2022-12-06T03:52:36.527Z,23.1
2022-12-06T03:53:38.998Z,23
2022-12-06T03:54:41.278Z,23
2022-12-06T03:55:43.196Z,23.1
2022-12-06T03:56:45.095Z,22.9
2022-12-06T03:57:47.584Z,22.9
2022-12-06T03:58:50.050Z,23
2022-12-06T03:59:52.280Z,23
2022-12-06T04:00:54.752Z,23.1
2022-12-06T04:01:57.290Z,23.1
2022-12-06T04:03:00.068Z,23
2022-12-06T04:04:02.672Z,23
2022-12-06T04:05:05.295Z,23.1
2022-12-06T04:06:07.779Z,23.1
2022-12-06T04:07:10.259Z,23
2022-12-06T04:08:12.241Z,23
2022-12-06T04:09:14.588Z,23.1
2022-12-06T04:10:16.877Z,23
2022-12-06T04:11:19.096Z,23
2022-12-06T04:12:21.572Z,23
2022-12-06T04:13:24.063Z,23
2022-12-06T04:14:26.538Z,23
2022-12-06T04:15:28.782Z,23
2022-12-06T04:16:30.972Z,23
2022-12-06T04:17:33.575Z,22.9
2022-12-06T04:18:35.788Z,22.9
2022-12-06T04:19:38.266Z,23
2022-12-06T04:20:40.763Z,23
2022-12-06T04:21:42.963Z,23
2022-12-06T04:22:45.435Z,22.9
2022-12-06T04:23:47.904Z,22.9
2022-12-06T04:24:50.383Z,23
2022-12-06T04:25:52.953Z,23
2022-12-06T04:26:55.437Z,22.7
2022-12-06T04:27:57.910Z,22.9
2022-12-06T04:29:00.385Z,22.6
2022-12-06T04:30:02.853Z,22.8
2022-12-06T04:31:05.402Z,22.8
2022-12-06T04:32:08.281Z,22.9
2022-12-06T04:33:10.761Z,22.7
2022-12-06T04:34:12.675Z,22.8
2022-12-06T04:35:14.884Z,22.8
2022-12-06T04:36:17.364Z,22.7
2022-12-06T04:37:19.866Z,22.8
2022-12-06T04:38:22.067Z,22.9
2022-12-06T04:39:24.548Z,22.8
2022-12-06T04:40:27.022Z,22.7
2022-12-06T04:41:29.592Z,22.6
2022-12-06T04:42:32.071Z,22.8
2022-12-06T04:43:34.547Z,22.7
2022-12-06T04:44:36.746Z,22.9
2022-12-06T04:45:38.947Z,22.8
2022-12-06T04:46:41.254Z,22.7
2022-12-06T04:47:43.784Z,22.8
2022-12-06T04:48:46.021Z,22.8
2022-12-06T04:49:48.251Z,22.8
2022-12-06T04:50:50.457Z,22.8
2022-12-06T04:51:52.951Z,22.8
2022-12-06T04:52:55.426Z,22.9
2022-12-06T04:53:57.899Z,22.8
2022-12-06T04:54:59.528Z,22.9
2022-12-06T04:56:02.014Z,22.8
2022-12-06T04:57:04.588Z,23.2
2022-12-06T04:58:07.065Z,22.8
2022-12-06T04:59:09.539Z,22.6
2022-12-06T05:00:12.010Z,22.7
2022-12-06T05:01:13.989Z,22.8
2022-12-06T05:02:16.975Z,23
2022-12-06T05:03:19.485Z,22.7
2022-12-06T05:04:22.358Z,22.8
2022-12-06T05:05:25.139Z,22.5
2022-12-06T05:06:27.615Z,22.9
2022-12-06T05:07:29.802Z,22.7
2022-12-06T05:08:32.519Z,22.7
2022-12-06T05:09:34.719Z,22.9
2022-12-06T05:10:36.650Z,22.7
2022-12-06T05:11:38.839Z,22.6
2022-12-06T05:12:42.193Z,22.7
2022-12-06T05:13:44.736Z,22.9
2022-12-06T05:14:47.216Z,22.6
2022-12-06T05:15:49.743Z,22.7
2022-12-06T05:16:52.344Z,22.8
2022-12-06T05:17:55.275Z,22.5
2022-12-06T05:18:57.778Z,22.7
2022-12-06T05:20:00.190Z,22.8
2022-12-06T05:21:03.756Z,22.6
2022-12-06T05:22:05.659Z,22.8
2022-12-06T05:23:07.849Z,22.6
2022-12-06T05:24:10.347Z,22.7
2022-12-06T05:25:12.580Z,22.9
2022-12-06T05:26:15.066Z,22.5
2022-12-06T05:27:17.280Z,22.5
2022-12-06T05:28:19.849Z,22.8
2022-12-06T05:29:22.061Z,22.6
2022-12-06T05:30:24.535Z,22.7
2022-12-06T05:31:26.775Z,22.7
2022-12-06T05:32:29.408Z,22.6
2022-12-06T05:33:31.949Z,22.7
2022-12-06T05:34:34.428Z,22.6
2022-12-06T05:35:36.903Z,22.7
2022-12-06T05:36:39.395Z,22.6
2022-12-06T05:37:41.587Z,22.6
2022-12-06T05:38:48.520Z,22.8
2022-12-06T05:39:48.752Z,22.6
2022-12-06T05:40:50.937Z,22.7
2022-12-06T05:41:53.413Z,22.6
2022-12-06T05:42:55.619Z,22.7
2022-12-06T05:43:57.904Z,22.7
2022-12-06T05:44:59.837Z,22.7
2022-12-06T05:46:02.343Z,22.6
2022-12-06T05:47:05.041Z,22.7
2022-12-06T05:48:07.545Z,22.5
2022-12-06T05:49:10.041Z,22.7
2022-12-06T05:50:11.970Z,22.5
2022-12-06T05:51:14.437Z,22.7
2022-12-06T05:52:16.640Z,22.7
2022-12-06T05:53:19.166Z,22.7
2022-12-06T05:54:21.713Z,22.5
2022-12-06T05:55:24.241Z,22.7
2022-12-06T05:56:26.458Z,22.5
2022-12-06T05:57:28.939Z,22.5
2022-12-06T05:58:31.150Z,22.5
2022-12-06T05:59:33.710Z,22.5
2022-12-06T06:00:35.919Z,22.5
2022-12-06T06:01:38.439Z,22.5
2022-12-06T06:02:41.553Z,22.6
2022-12-06T06:03:47.597Z,22.7
2022-12-06T06:04:50.019Z,22.7
2022-12-06T06:05:52.501Z,22.8
2022-12-06T06:06:54.448Z,22.5
2022-12-06T06:07:56.640Z,22.5
2022-12-06T06:08:59.280Z,22.5
2022-12-06T06:10:01.684Z,22.6
2022-12-06T06:11:04.346Z,22.5
2022-12-06T06:12:10.987Z,22.6
2022-12-06T06:13:11.803Z,22.5
2022-12-06T06:14:14.277Z,22.6
2022-12-06T06:15:16.847Z,22.6
2022-12-06T06:16:19.147Z,22.6
2022-12-06T06:17:22.089Z,22.6
2022-12-06T06:18:24.565Z,22.6
2022-12-06T06:19:27.062Z,22.6
2022-12-06T06:20:29.281Z,22.4
2022-12-06T06:21:31.761Z,22.7
2022-12-06T06:22:33.669Z,22.7
2022-12-06T06:23:35.879Z,22.6
2022-12-06T06:24:38.358Z,22.6
2022-12-06T06:25:40.841Z,22.7
2022-12-06T06:26:43.048Z,22.6
2022-12-06T06:27:45.555Z,22.5
2022-12-06T06:28:47.201Z,22.5
2022-12-06T06:29:49.437Z,22.4
2022-12-06T06:30:52.005Z,22.4
2022-12-06T06:31:53.997Z,22.8
2022-12-06T06:32:56.274Z,22.7
2022-12-06T06:33:58.468Z,22.5
2022-12-06T06:35:00.458Z,22.7
2022-12-06T06:36:02.976Z,22.7
2022-12-06T06:37:05.571Z,22.5
2022-12-06T06:38:07.758Z,22.5
2022-12-06T06:39:09.700Z,22.4
2022-12-06T06:40:11.637Z,22.4
2022-12-06T06:41:13.573Z,22.6
2022-12-06T06:42:16.049Z,22.5
2022-12-06T06:43:18.658Z,22.5
2022-12-06T06:44:21.043Z,22.6
2022-12-06T06:45:28.316Z,22.6
2022-12-06T06:46:28.523Z,22.6
2022-12-06T06:47:31.378Z,22.4
2022-12-06T06:48:33.850Z,22.4
2022-12-06T06:49:36.049Z,22.5
2022-12-06T06:50:38.550Z,22.6
2022-12-06T06:51:40.780Z,22.4
2022-12-06T06:52:43.307Z,22.6
2022-12-06T06:53:45.511Z,22.6
2022-12-06T06:54:47.998Z,22.5
2022-12-06T06:55:50.480Z,22.5
2022-12-06T06:56:52.422Z,22.5
2022-12-06T06:57:54.625Z,22.5
2022-12-06T06:58:56.827Z,22.5
2022-12-06T06:59:59.276Z,22.4
2022-12-06T07:01:03.796Z,22.6
2022-12-06T07:02:06.863Z,22.5
2022-12-06T07:03:09.452Z,22.5
2022-12-06T07:04:11.933Z,22.6
2022-12-06T07:05:14.419Z,22.5
2022-12-06T07:06:16.321Z,22.6
2022-12-06T07:07:21.115Z,22.4
2022-12-06T07:08:23.513Z,22.5
2022-12-06T07:09:25.716Z,22.5
2022-12-06T07:10:28.187Z,22.4
2022-12-06T07:11:30.288Z,22.6
2022-12-06T07:12:32.775Z,22.5
2022-12-06T07:13:34.712Z,22.5
2022-12-06T07:14:36.645Z,22.5
2022-12-06T07:15:38.862Z,22.5
2022-12-06T07:16:40.835Z,22.4
2022-12-06T07:17:43.437Z,22.3
2022-12-06T07:18:46.135Z,22.5
2022-12-06T07:19:48.675Z,22.4
2022-12-06T07:20:51.198Z,22.5
2022-12-06T07:21:53.689Z,22.6
2022-12-06T07:22:56.238Z,22.5
2022-12-06T07:23:58.431Z,22.5
2022-12-06T07:25:00.646Z,22.3
2022-12-06T07:26:02.573Z,22.5
2022-12-06T07:27:05.079Z,22.4
2022-12-06T07:28:07.557Z,22.5
2022-12-06T07:29:09.228Z,22.5
2022-12-06T07:30:15.867Z,22.5
2022-12-06T07:31:16.751Z,22.4
2022-12-06T07:32:19.371Z,22.5
2022-12-06T07:33:21.598Z,22.3
2022-12-06T07:34:23.910Z,22.6
2022-12-06T07:35:36.847Z,22.5
2022-12-06T07:36:31.114Z,22.5
2022-12-06T07:37:32.759Z,22.4
2022-12-06T07:38:34.441Z,22.5
2022-12-06T07:39:36.657Z,22.4
2022-12-06T07:41:03.297Z,22.3
2022-12-06T07:41:43.852Z,22.3
2022-12-06T07:42:46.336Z,22.5
2022-12-06T07:43:48.856Z,22.4
2022-12-06T07:44:52.028Z,22.4
2022-12-06T07:45:56.136Z,22.6
2022-12-06T07:46:58.697Z,22.2
2022-12-06T07:48:01.185Z,22.4
2022-12-06T07:49:03.697Z,22.5
2022-12-06T07:50:06.266Z,22.5
2022-12-06T07:51:14.950Z,22.3
2022-12-06T07:52:17.143Z,22.5
2022-12-06T07:53:19.366Z,22.5
2022-12-06T07:54:21.614Z,22.5
2022-12-06T07:55:24.092Z,22.4
2022-12-06T07:56:26.284Z,22.5
2022-12-06T07:57:28.779Z,22.5
2022-12-06T07:58:31.321Z,22.5
2022-12-06T07:59:33.805Z,22.5
2022-12-06T08:00:36.292Z,22.4
2022-12-06T08:01:38.849Z,22.4
2022-12-06T08:02:41.926Z,22.3
2022-12-06T08:03:43.877Z,22.5
2022-12-06T08:04:46.152Z,22.5
2022-12-06T08:05:49.344Z,22.4
2022-12-06T08:06:51.537Z,22.4
2022-12-06T08:07:53.755Z,22.3
2022-12-06T08:08:56.319Z,22.4
2022-12-06T08:09:58.617Z,22.5
2022-12-06T08:11:03.051Z,22.3
2022-12-06T08:12:05.265Z,22.4
2022-12-06T08:13:07.789Z,22.4
2022-12-06T08:14:10.017Z,22.6
2022-12-06T08:15:12.528Z,22.4
2022-12-06T08:16:14.806Z,22.4
2022-12-06T08:17:17.456Z,22.5
2022-12-06T08:18:19.957Z,22.3
2022-12-06T08:19:22.442Z,22.5
2022-12-06T08:20:24.649Z,22.6
2022-12-06T08:21:27.389Z,22.3
2022-12-06T08:22:29.607Z,22.4
2022-12-06T08:23:34.270Z,22.6
2022-12-06T08:24:37.066Z,22.5
2022-12-06T08:25:39.295Z,22.4
2022-12-06T08:26:41.524Z,22.5
2022-12-06T08:27:43.436Z,22.4
2022-12-06T08:28:45.369Z,22.6
2022-12-06T08:29:47.851Z,22.4
2022-12-06T08:30:50.360Z,22.4
2022-12-06T08:31:53.243Z,22.4
2022-12-06T08:32:55.473Z,22.5
2022-12-06T08:33:57.950Z,22.4
2022-12-06T08:35:00.185Z,22.3
2022-12-06T08:36:02.395Z,22.4
2022-12-06T08:37:04.967Z,22.3
2022-12-06T08:38:06.372Z,22.4
2022-12-06T08:39:08.869Z,22.3
2022-12-06T08:40:10.777Z,22.3
2022-12-06T08:41:13.296Z,22.4
2022-12-06T08:42:16.820Z,22.5
2022-12-06T08:43:20.487Z,22.3
2022-12-06T08:44:22.969Z,22.3
2022-12-06T08:45:25.185Z,22.3
2022-12-06T08:46:27.183Z,22.5
2022-12-06T08:47:29.737Z,22.3
2022-12-06T08:48:31.675Z,22.2
2022-12-06T08:49:40.769Z,22.4
2022-12-06T08:50:42.444Z,22.3
2022-12-06T08:51:44.381Z,22.5
2022-12-06T08:52:46.987Z,22.5
2022-12-06T08:53:49.479Z,22.2
2022-12-06T08:54:51.687Z,22.3
2022-12-06T08:55:57.406Z,22.2
2022-12-06T08:56:58.631Z,22.4
2022-12-06T08:58:00.845Z,22.2
2022-12-06T08:59:02.502Z,22.5
2022-12-06T09:00:05.001Z,22.4
2022-12-06T09:01:07.263Z,22.4
2022-12-06T09:02:09.544Z,22.4
2022-12-06T09:03:12.081Z,22.4
2022-12-06T09:04:14.371Z,22.3
2022-12-06T09:05:16.771Z,22.3
2022-12-06T09:06:19.264Z,22.3
2022-12-06T09:07:21.770Z,22.2
2022-12-06T09:08:24.250Z,22.4
2022-12-06T09:09:26.576Z,22.4
2022-12-06T09:10:29.059Z,22.3
2022-12-06T09:11:31.558Z,22.2
2022-12-06T09:12:34.068Z,22.3
2022-12-06T09:13:36.554Z,22.3
2022-12-06T09:14:38.492Z,22.3
2022-12-06T09:15:40.530Z,22.3
2022-12-06T09:16:43.062Z,22.3
2022-12-06T09:17:44.733Z,22.4
2022-12-06T09:18:47.206Z,22.4
2022-12-06T09:19:49.425Z,22.2
2022-12-06T09:20:51.657Z,22.3
2022-12-06T09:21:53.304Z,22.3
2022-12-06T09:22:55.796Z,22.5
2022-12-06T09:23:58.388Z,22.4
2022-12-06T09:25:00.906Z,22.5
2022-12-06T09:26:03.388Z,22.3
2022-12-06T09:27:05.606Z,22.2
2022-12-06T09:28:08.187Z,22.3
2022-12-06T09:29:10.676Z,22.4
2022-12-06T09:30:12.328Z,22.4
2022-12-06T09:31:14.610Z,22.4
2022-12-06T09:32:17.174Z,22.4
2022-12-06T09:33:19.397Z,22.2
2022-12-06T09:34:21.606Z,22.4
2022-12-06T09:35:25.153Z,22.5
2022-12-06T09:36:27.557Z,22.4
2022-12-06T09:37:29.460Z,22.4
2022-12-06T09:38:31.694Z,22.5
2022-12-06T09:39:34.063Z,22.3
2022-12-06T09:40:41.413Z,22.4
2022-12-06T09:41:41.331Z,22.4
2022-12-06T09:42:43.329Z,22.3
2022-12-06T09:43:45.865Z,22.3
2022-12-06T09:44:48.110Z,22.4
2022-12-06T09:45:50.330Z,22.3
2022-12-06T09:46:52.667Z,22.4
2022-12-06T09:47:55.359Z,22.3
2022-12-06T09:48:57.580Z,22.3
2022-12-06T09:50:00.449Z,22.4
2022-12-06T09:51:04.373Z,22.3
2022-12-06T09:52:06.912Z,22.4
2022-12-06T09:53:09.124Z,22.3
2022-12-06T09:54:11.616Z,22.5
2022-12-06T09:55:14.202Z,22.3
2022-12-06T09:56:16.689Z,22.4
2022-12-06T09:57:18.897Z,22.3
2022-12-06T09:58:21.108Z,22.2
2022-12-06T09:59:23.109Z,22.3
2022-12-06T10:00:25.601Z,22.4
2022-12-06T10:01:28.245Z,22.3
2022-12-06T10:02:31.073Z,22.4
2022-12-06T10:03:33.586Z,22.2
2022-12-06T10:04:36.099Z,22.4
2022-12-06T10:05:38.604Z,22.2
2022-12-06T10:06:41.121Z,22.4
2022-12-06T10:07:43.755Z,22.4
2022-12-06T10:08:47.195Z,22.2
2022-12-06T10:09:50.019Z,22.4
2022-12-06T10:10:52.592Z,22.5
2022-12-06T10:11:54.805Z,22.4
2022-12-06T10:12:57.341Z,22.4
2022-12-06T10:13:59.555Z,22.3
2022-12-06T10:15:02.079Z,22.3
2022-12-06T10:16:04.300Z,22.3
2022-12-06T10:17:09.388Z,22.3
2022-12-06T10:18:11.916Z,22.2
2022-12-06T10:19:13.848Z,22.3
2022-12-06T10:20:16.614Z,22.3
2022-12-06T10:21:19.107Z,22.2
2022-12-06T10:22:21.594Z,22.4
2022-12-06T10:23:23.828Z,22.4
2022-12-06T10:24:26.307Z,22.4
2022-12-06T10:25:28.573Z,22.4
2022-12-06T10:26:31.238Z,22.3
2022-12-06T10:27:33.724Z,22.5
2022-12-06T10:28:35.681Z,22.4
2022-12-06T10:29:38.166Z,22.2
2022-12-06T10:30:40.690Z,22.3
2022-12-06T10:31:43.232Z,22.3
2022-12-06T10:32:46.132Z,22.4
2022-12-06T10:33:48.643Z,22.3
2022-12-06T10:34:51.138Z,22.3
2022-12-06T10:35:53.057Z,22.3
2022-12-06T10:36:55.005Z,22.3
2022-12-06T10:37:57.220Z,22.3
2022-12-06T10:38:59.176Z,22.3
2022-12-06T10:40:01.592Z,22.5
2022-12-06T10:41:05.619Z,22.1
2022-12-06T10:42:08.210Z,22.4
2022-12-06T10:43:10.697Z,22.3
2022-12-06T10:44:13.196Z,22.5
2022-12-06T10:45:16.723Z,22.3
2022-12-06T10:46:20.480Z,22.4
2022-12-06T10:47:22.677Z,22.3
2022-12-06T10:48:25.181Z,22.4
2022-12-06T10:49:27.376Z,22.5
2022-12-06T10:50:29.582Z,22.4
2022-12-06T10:51:32.063Z,22.4
2022-12-06T10:52:34.544Z,22.3
2022-12-06T10:53:37.023Z,22.3
2022-12-06T10:54:39.511Z,22.3
2022-12-06T10:55:41.434Z,22.6
2022-12-06T10:56:43.925Z,22.4
2022-12-06T10:57:46.546Z,22.2
2022-12-06T10:58:48.755Z,22.4
2022-12-06T10:59:51.239Z,22.3
2022-12-06T11:00:53.264Z,22.3
2022-12-06T11:01:56.206Z,22.2
2022-12-06T11:02:59.080Z,22.2
2022-12-06T11:04:01.347Z,22.3
2022-12-06T11:05:03.839Z,22.3
2022-12-06T11:06:05.774Z,22.4
2022-12-06T11:07:07.970Z,22.3
2022-12-06T11:08:10.536Z,22.4
2022-12-06T11:09:13.030Z,22.4
2022-12-06T11:10:15.506Z,22.3
2022-12-06T11:11:17.692Z,22.3
2022-12-06T11:12:20.161Z,22.5
2022-12-06T11:13:26.147Z,22.5
2022-12-06T11:14:28.675Z,22.3
2022-12-06T11:15:31.144Z,22.4
2022-12-06T11:16:33.696Z,22.4
2022-12-06T11:17:36.679Z,22.4
2022-12-06T11:18:38.698Z,22.4
2022-12-06T11:19:41.173Z,22.3
2022-12-06T11:20:43.380Z,22.2
2022-12-06T11:21:46.041Z,22.3
2022-12-06T11:22:48.540Z,22.3
2022-12-06T11:23:50.744Z,22.2
2022-12-06T11:24:53.223Z,22.2
2022-12-06T11:27:12.833Z,22.3
2022-12-06T11:28:15.321Z,22.2
2022-12-06T11:29:17.881Z,22.3
2022-12-06T11:30:20.669Z,22.3
2022-12-06T11:31:23.843Z,22.3
2022-12-06T11:32:26.478Z,22.2
2022-12-06T11:33:28.981Z,22.4
2022-12-06T11:34:31.454Z,22.1
2022-12-06T11:35:33.389Z,22.2
2022-12-06T11:36:35.871Z,22.1
2022-12-06T11:37:42.906Z,22.2
2022-12-06T11:38:43.048Z,22.2
2022-12-06T11:39:45.246Z,22.1
2022-12-06T11:40:47.448Z,22.3
2022-12-06T11:41:49.661Z,22.2
2022-12-06T11:42:51.881Z,22.2
2022-12-06T11:43:54.371Z,22.2
2022-12-06T11:44:56.970Z,22.2
2022-12-06T11:45:59.509Z,22.3
2022-12-06T11:47:02.071Z,22.3
2022-12-06T11:48:04.630Z,22.4
2022-12-06T11:49:06.849Z,22.3
2022-12-06T11:50:11.958Z,22.2
2022-12-06T11:51:14.029Z,22.3
2022-12-06T11:52:16.517Z,22.5
2022-12-06T11:53:19.018Z,22.3
2022-12-06T11:54:21.234Z,22.1
2022-12-06T11:55:23.450Z,22.3
2022-12-06T11:56:25.671Z,22.3
2022-12-06T11:57:27.873Z,22.1
2022-12-06T11:58:30.069Z,22.2
2022-12-06T11:59:32.273Z,22.3
2022-12-06T12:00:34.524Z,22.3
2022-12-06T12:01:36.815Z,22.2
2022-12-06T12:02:39.705Z,22.2
2022-12-06T12:03:42.879Z,22.2
2022-12-06T12:04:45.608Z,22.3
2022-12-06T12:05:48.102Z,22.3
2022-12-06T12:06:50.013Z,22.4
2022-12-06T12:07:52.225Z,22.3
2022-12-06T12:08:55.074Z,22.3
2022-12-06T12:09:57.583Z,22.4
2022-12-06T12:11:00.066Z,22.2
2022-12-06T12:12:02.321Z,22.3
2022-12-06T12:13:05.561Z,22.3
2022-12-06T12:14:08.041Z,22.3
2022-12-06T12:15:10.527Z,22.3
2022-12-06T12:16:13.103Z,22.3
2022-12-06T12:17:15.983Z,22.2
2022-12-06T12:18:18.463Z,22.2
2022-12-06T12:19:20.956Z,22.4
2022-12-06T12:20:23.466Z,22.4
2022-12-06T12:21:25.662Z,22.3
2022-12-06T12:22:27.878Z,22.2
2022-12-06T12:23:30.352Z,22.3
2022-12-06T12:24:32.788Z,22.3
2022-12-06T12:25:37.993Z,22.3
2022-12-06T12:26:40.473Z,22.3
2022-12-06T12:27:42.967Z,22.3
2022-12-06T12:28:45.190Z,22.4
2022-12-06T12:29:47.670Z,22.3
2022-12-06T12:30:49.853Z,22.4
2022-12-06T12:31:52.484Z,22.4
2022-12-06T12:32:55.423Z,22.1
2022-12-06T12:33:57.911Z,22.2
2022-12-06T12:35:00.394Z,22.3
2022-12-06T12:36:04.073Z,22.4
2022-12-06T12:37:06.005Z,22.3
2022-12-06T12:38:08.211Z,22.2
2022-12-06T12:39:10.712Z,22.3
2022-12-06T12:40:13.203Z,22.2
2022-12-06T12:41:15.561Z,22.2
2022-12-06T12:42:18.050Z,22.3
2022-12-06T12:43:20.051Z,22.4
2022-12-06T12:44:37.387Z,22.4
2022-12-06T12:45:27.256Z,22.4
2022-12-06T12:46:29.504Z,22.4
2022-12-06T12:47:32.384Z,22.2
2022-12-06T12:48:34.634Z,22.4
2022-12-06T12:49:37.135Z,22.2
2022-12-06T12:50:39.648Z,22.3
2022-12-06T12:51:46.502Z,22.3
2022-12-06T12:52:47.121Z,22.5
2022-12-06T12:53:50.448Z,22.4
2022-12-06T12:54:52.463Z,22.3
2022-12-06T12:55:54.678Z,22.3
2022-12-06T12:56:56.605Z,22.2
2022-12-06T12:57:58.800Z,22.3
2022-12-06T12:59:01.033Z,22.3
2022-12-06T13:00:02.973Z,22.1
2022-12-06T13:01:05.552Z,22.2
2022-12-06T13:02:08.235Z,22.4
2022-12-06T13:03:34.703Z,22.3
2022-12-06T13:04:16.103Z,22.4
2022-12-06T13:05:35.119Z,22.4
2022-12-06T13:06:23.649Z,22.4
2022-12-06T13:07:26.161Z,22.4
2022-12-06T13:08:28.658Z,22.5
2022-12-06T13:09:31.156Z,22.4
2022-12-06T13:10:33.637Z,22.3
2022-12-06T13:11:35.838Z,22.2
2022-12-06T13:12:38.342Z,22.3
2022-12-06T13:13:40.555Z,22.3
2022-12-06T13:14:42.218Z,22.3
2022-12-06T13:15:44.430Z,22.2
2022-12-06T13:16:47.039Z,22.4
2022-12-06T13:17:49.783Z,22.4
2022-12-06T13:18:55.266Z,22.4
2022-12-06T13:19:57.764Z,22.3
2022-12-06T13:21:00.543Z,22.3
2022-12-06T13:22:02.792Z,22.5
2022-12-06T13:23:05.296Z,22.3
2022-12-06T13:24:07.227Z,22.3
2022-12-06T13:25:09.719Z,22.2
2022-12-06T13:26:11.933Z,22.4
2022-12-06T13:27:14.175Z,22.2
2022-12-06T13:28:16.378Z,22.3
2022-12-06T13:29:18.880Z,22.3
2022-12-06T13:30:21.112Z,22.4
2022-12-06T13:31:23.501Z,22.2
2022-12-06T13:32:25.983Z,22.5
2022-12-06T13:33:28.180Z,22.4
2022-12-06T13:34:34.712Z,22.4
2022-12-06T13:35:35.401Z,22.4
2022-12-06T13:36:37.699Z,22.4
2022-12-06T13:37:40.194Z,22.4
2022-12-06T13:38:42.140Z,22.3
2022-12-06T13:39:44.351Z,22.3
2022-12-06T13:40:46.549Z,22.3
2022-12-06T13:41:48.763Z,22.3
2022-12-06T13:42:50.977Z,22.4
2022-12-06T13:43:53.198Z,22.6
2022-12-06T13:44:55.692Z,22.3
2022-12-06T13:45:57.925Z,22.3
2022-12-06T13:47:00.461Z,22.4
2022-12-06T13:48:02.396Z,22.3
2022-12-06T13:49:04.607Z,22.3
2022-12-06T13:50:07.044Z,22.4
2022-12-06T13:51:09.403Z,22.3
2022-12-06T13:52:11.707Z,22.4
2022-12-06T13:53:14.219Z,22.3
2022-12-06T13:54:16.741Z,22.4
2022-12-06T13:55:18.949Z,22.4
2022-12-06T13:56:20.909Z,22.4
2022-12-06T13:57:23.129Z,22.4
2022-12-06T13:58:25.651Z,22.3